createdAt,value
2024-02-02T00:02:21.850Z,86.05
2024-02-02T00:04:56.990Z,86.36
2024-02-02T00:07:30.897Z,86.52
2024-02-02T00:10:05.592Z,87.19
2024-02-02T00:12:39.513Z,86.89
2024-02-02T00:15:13.358Z,87.46
2024-02-02T00:17:47.792Z,86.24
2024-02-02T00:20:23.155Z,86.59
2024-02-02T00:22:57.649Z,86.59
2024-02-02T00:25:31.541Z,86.75
2024-02-02T00:28:05.843Z,87.66
2024-02-02T00:30:41.421Z,88.03
2024-02-02T00:33:15.566Z,88.50
2024-02-02T00:35:50.996Z,89.07
2024-02-02T00:38:24.913Z,89.29
2024-02-02T00:40:58.698Z,89.27
2024-02-02T00:43:32.490Z,89.59
2024-02-02T00:46:06.540Z,89.27
2024-02-02T00:48:40.474Z,90.31
2024-02-02T00:51:15.767Z,90.97
2024-02-02T00:53:49.663Z,92.09
2024-02-02T00:56:25.386Z,92.37
2024-02-02T00:58:59.326Z,93.40
2024-02-02T01:01:33.280Z,92.82
2024-02-02T01:04:07.140Z,93.27
2024-02-02T01:06:42.487Z,93.18
2024-02-02T01:09:16.990Z,93.26
2024-02-02T01:11:54.491Z,93.69
2024-02-02T01:14:28.472Z,92.94
2024-02-02T01:17:02.559Z,92.46
2024-02-02T01:19:37.518Z,92.43
2024-02-02T01:22:12.690Z,92.93
2024-02-02T01:24:46.430Z,92.56
2024-02-02T01:27:20.260Z,92.08
2024-02-02T01:29:54.071Z,92.83
2024-02-02T01:32:27.956Z,93.05
2024-02-02T01:35:01.956Z,93.75
2024-02-02T01:37:37.145Z,93.38
2024-02-02T01:40:11.267Z,93.11
2024-02-02T01:42:45.105Z,93.07
2024-02-02T01:45:19.035Z,92.84
2024-02-02T01:47:52.889Z,92.93
2024-02-02T01:50:26.748Z,93.19
2024-02-02T01:53:02.289Z,92.67
2024-02-02T01:55:36.279Z,93.00
2024-02-02T01:58:10.691Z,93.28
2024-02-02T02:00:44.534Z,93.80
2024-02-02T02:03:18.890Z,93.71
2024-02-02T02:05:52.824Z,93.23
2024-02-02T02:08:28.238Z,92.84
2024-02-02T02:11:02.036Z,92.77
2024-02-02T02:13:36.393Z,91.90
2024-02-02T02:16:10.470Z,90.69
2024-02-02T02:18:52.643Z,89.62
2024-02-02T02:21:32.057Z,90.49
2024-02-02T02:24:06.592Z,88.66
2024-02-02T02:26:41.458Z,87.72
2024-02-02T02:29:15.340Z,86.68
2024-02-02T02:31:54.825Z,85.61
2024-02-02T02:34:29.632Z,85.83
2024-02-02T02:37:05.496Z,85.47
2024-02-02T02:39:39.295Z,84.61
2024-02-02T02:42:13.259Z,84.20
2024-02-02T02:44:47.187Z,84.46
2024-02-02T02:47:21.412Z,84.12
2024-02-02T02:49:55.160Z,82.97
2024-02-02T02:52:30.296Z,82.75
2024-02-02T02:55:04.792Z,83.14
2024-02-02T02:57:38.659Z,82.67
2024-02-02T03:00:14.101Z,83.24
2024-02-02T03:02:48.043Z,83.69
2024-02-02T03:05:21.859Z,83.03
2024-02-02T03:07:57.303Z,82.98
2024-02-02T03:10:31.447Z,83.27
2024-02-02T03:13:05.539Z,82.35
2024-02-02T03:15:41.213Z,80.40
2024-02-02T03:18:15.726Z,80.47
2024-02-02T03:20:49.706Z,81.05
2024-02-02T03:23:24.835Z,79.65
2024-02-02T03:25:58.600Z,78.07
2024-02-02T03:28:32.688Z,78.18
2024-02-02T03:31:08.332Z,78.11
2024-02-02T03:33:42.173Z,75.44
2024-02-02T03:36:16.087Z,72.42
2024-02-02T03:38:51.678Z,72.08
2024-02-02T03:41:25.480Z,70.34
2024-02-02T03:43:59.241Z,69.26
2024-02-02T03:46:32.993Z,69.45
2024-02-02T03:49:06.973Z,69.56
2024-02-02T03:51:40.839Z,69.17
2024-02-02T03:54:16.156Z,70.17
2024-02-02T03:56:49.972Z,71.00
2024-02-02T03:59:23.805Z,71.48
2024-02-02T04:01:57.580Z,72.09
2024-02-02T04:04:32.821Z,73.94
2024-02-02T04:07:06.573Z,77.14
2024-02-02T04:09:41.885Z,78.74
2024-02-02T04:12:15.814Z,76.93
2024-02-02T04:14:49.776Z,77.62
2024-02-02T04:17:23.616Z,77.40
2024-02-02T04:19:57.445Z,78.03
2024-02-02T04:22:31.244Z,78.87
2024-02-02T04:25:07.341Z,79.19
2024-02-02T04:27:41.372Z,77.42
2024-02-02T04:30:15.757Z,76.69
2024-02-02T04:32:49.658Z,78.06
2024-02-02T04:35:24.534Z,79.36
2024-02-02T04:38:00.150Z,79.31
2024-02-02T04:40:36.041Z,80.07
2024-02-02T04:43:09.854Z,81.93
2024-02-02T04:45:44.591Z,82.42
2024-02-02T04:48:18.542Z,82.42
2024-02-02T04:50:52.420Z,84.17
2024-02-02T04:53:26.206Z,84.25
2024-02-02T04:56:01.829Z,84.20
2024-02-02T04:58:35.592Z,84.16
2024-02-02T05:01:09.532Z,84.85
2024-02-02T05:03:43.457Z,85.39
2024-02-02T05:06:18.158Z,85.40
2024-02-02T05:08:52.302Z,86.49
2024-02-02T05:14:20.586Z,86.79
2024-02-02T05:16:54.723Z,86.83
2024-02-02T05:19:28.575Z,86.70
2024-02-02T05:22:03.088Z,86.71
2024-02-02T05:24:45.071Z,86.63
2024-02-02T05:27:19.823Z,86.54
2024-02-02T05:29:55.116Z,86.54
2024-02-02T05:32:28.891Z,86.18
2024-02-02T05:35:03.057Z,87.59
2024-02-02T05:37:37.800Z,87.87
2024-02-02T05:40:11.796Z,87.94
2024-02-02T05:42:46.858Z,87.63
2024-02-02T05:45:22.055Z,88.03
2024-02-02T05:47:55.976Z,88.83
2024-02-02T05:50:29.934Z,88.94
2024-02-02T05:53:03.820Z,89.93
2024-02-02T05:55:37.639Z,90.66
2024-02-02T05:58:11.434Z,95.33
2024-02-02T06:00:47.158Z,100.00
2024-02-02T06:03:21.841Z,98.92
2024-02-02T06:05:55.768Z,99.40
2024-02-02T06:08:29.686Z,100.00
2024-02-02T06:11:04.976Z,100.00
2024-02-02T06:13:38.729Z,100.00
2024-02-02T06:16:13.843Z,100.00
2024-02-02T06:18:47.725Z,100.00
2024-02-02T06:21:21.590Z,100.00
2024-02-02T06:23:55.409Z,100.00
2024-02-02T06:26:29.203Z,100.00
2024-02-02T06:29:03.505Z,100.00
2024-02-02T06:31:38.763Z,100.00
2024-02-02T06:34:12.866Z,100.00
2024-02-02T06:36:46.976Z,100.00
2024-02-02T06:39:21.183Z,100.00
2024-02-02T06:41:55.104Z,100.00
2024-02-02T06:44:28.903Z,100.00
2024-02-02T06:47:04.074Z,100.00
2024-02-02T06:49:37.984Z,100.00
2024-02-02T06:52:12.262Z,100.00
2024-02-02T06:54:46.522Z,100.00
2024-02-02T06:57:20.709Z,100.00
2024-02-02T06:59:56.455Z,99.98
2024-02-02T07:02:33.884Z,99.90
2024-02-02T07:05:08.633Z,97.68
2024-02-02T07:07:42.590Z,95.08
2024-02-02T07:10:19.318Z,93.93
2024-02-02T07:12:59.662Z,94.25
2024-02-02T07:15:38.035Z,93.85
2024-02-02T07:18:29.713Z,95.35
2024-02-02T07:21:08.225Z,96.15
2024-02-02T07:23:42.788Z,95.38
2024-02-02T07:26:27.730Z,95.30
2024-02-02T07:29:07.338Z,95.46
2024-02-02T07:31:44.605Z,95.93
2024-02-02T07:34:41.413Z,95.85
2024-02-02T07:37:31.381Z,94.93
2024-02-02T07:40:26.188Z,94.91
2024-02-02T07:43:00.065Z,94.84
2024-02-02T07:45:34.738Z,94.77
2024-02-02T07:48:09.118Z,94.92
2024-02-02T07:50:44.311Z,95.07
2024-02-02T07:53:18.125Z,94.03
2024-02-02T07:55:52.177Z,94.68
2024-02-02T07:58:25.932Z,94.80
2024-02-02T08:01:00.335Z,93.34
2024-02-02T08:03:34.685Z,92.60
2024-02-02T08:06:10.920Z,93.34
2024-02-02T08:08:44.866Z,93.03
2024-02-02T08:11:19.000Z,91.04
2024-02-02T08:13:52.857Z,92.83
2024-02-02T08:16:26.604Z,92.68
2024-02-02T08:19:00.716Z,91.71
2024-02-02T08:21:36.044Z,90.66
2024-02-02T08:24:10.184Z,88.22
2024-02-02T08:26:43.987Z,89.18
2024-02-02T08:29:18.163Z,88.27
2024-02-02T08:31:52.131Z,88.08
2024-02-02T08:34:26.999Z,87.73
2024-02-02T08:37:03.429Z,88.48
2024-02-02T08:39:38.024Z,87.24
2024-02-02T08:42:18.918Z,87.19
2024-02-02T08:44:53.662Z,86.91
2024-02-02T08:47:31.684Z,86.58
2024-02-02T08:50:06.081Z,84.85
2024-02-02T08:52:44.281Z,84.62
2024-02-02T08:55:43.098Z,83.37
2024-02-02T08:58:23.150Z,81.13
2024-02-02T09:00:57.413Z,78.99
2024-02-02T09:03:45.197Z,77.39
2024-02-02T09:06:43.608Z,76.63
2024-02-02T09:09:21.221Z,77.93
2024-02-02T09:11:55.095Z,75.64
2024-02-02T09:14:29.758Z,75.79
2024-02-02T09:17:03.647Z,75.72
2024-02-02T09:19:42.718Z,75.95
2024-02-02T09:22:18.398Z,76.99
2024-02-02T09:24:55.135Z,76.67
2024-02-02T09:27:34.361Z,76.50
2024-02-02T09:30:12.835Z,73.51
2024-02-02T09:32:47.079Z,73.81
2024-02-02T09:35:51.114Z,73.70
2024-02-02T09:38:25.557Z,73.54
2024-02-02T09:41:22.754Z,74.15
2024-02-02T09:44:10.135Z,73.81
2024-02-02T09:46:52.283Z,73.13
2024-02-02T09:49:35.714Z,73.25
2024-02-02T09:52:21.150Z,73.29
2024-02-02T09:55:03.520Z,73.08
2024-02-02T09:57:50.877Z,73.92
2024-02-02T10:00:34.254Z,72.92
2024-02-02T10:03:19.466Z,72.52
2024-02-02T10:06:07.747Z,72.34
2024-02-02T10:08:59.057Z,73.18
2024-02-02T10:11:56.593Z,73.28
2024-02-02T10:14:56.604Z,72.44
2024-02-02T10:17:42.413Z,73.20
2024-02-02T10:20:26.228Z,72.77
2024-02-02T10:23:32.438Z,72.44
2024-02-02T10:26:29.769Z,72.99
2024-02-02T10:29:14.490Z,73.14
2024-02-02T10:32:10.865Z,72.87
2024-02-02T10:34:57.183Z,73.64
2024-02-02T10:37:36.436Z,72.78
2024-02-02T10:40:22.688Z,73.05
2024-02-02T10:43:15.517Z,72.59
2024-02-02T10:46:02.090Z,72.58
2024-02-02T10:48:58.682Z,72.75
2024-02-02T10:51:41.786Z,73.26
2024-02-02T10:54:25.923Z,72.76
2024-02-02T10:57:15.517Z,72.34
2024-02-02T11:00:08.350Z,71.26
2024-02-02T11:02:58.367Z,70.92
2024-02-02T11:05:41.735Z,71.03
2024-02-02T11:08:18.064Z,69.76
2024-02-02T11:11:01.732Z,69.48
2024-02-02T11:13:44.724Z,70.51
2024-02-02T11:16:33.044Z,71.56
2024-02-02T11:19:19.027Z,71.62
2024-02-02T11:22:14.035Z,70.94
2024-02-02T11:24:59.737Z,72.09
2024-02-02T11:27:43.083Z,71.09
2024-02-02T11:30:33.134Z,72.88
2024-02-02T11:33:29.419Z,72.54
2024-02-02T11:36:19.194Z,72.16
2024-02-02T11:39:02.333Z,73.33
2024-02-02T11:41:40.334Z,74.54
2024-02-02T11:44:16.357Z,75.43
2024-02-02T11:46:52.103Z,75.82
2024-02-02T11:49:31.441Z,75.70
2024-02-02T11:52:07.418Z,76.09
2024-02-02T11:54:47.357Z,76.50
2024-02-02T11:57:23.921Z,77.50
2024-02-02T11:59:58.932Z,77.36
2024-02-02T12:02:47.824Z,78.21
2024-02-02T12:05:26.889Z,78.39
2024-02-02T12:08:06.916Z,78.19
2024-02-02T12:10:43.911Z,78.08
2024-02-02T12:13:24.453Z,78.05
2024-02-02T12:15:58.673Z,78.00
2024-02-02T12:18:33.132Z,78.04
2024-02-02T12:21:16.529Z,78.74
2024-02-02T12:23:50.490Z,79.16
2024-02-02T12:26:25.980Z,79.35
2024-02-02T12:28:59.832Z,80.08
2024-02-02T12:31:33.633Z,79.81
2024-02-02T12:34:08.012Z,79.15
2024-02-02T12:36:41.957Z,80.26
2024-02-02T12:39:15.903Z,81.41
2024-02-02T12:41:51.699Z,81.02
2024-02-02T12:44:27.316Z,80.82
2024-02-02T12:47:05.513Z,81.24
2024-02-02T12:49:39.677Z,82.65
2024-02-02T12:52:13.550Z,82.25
2024-02-02T12:54:47.540Z,82.92
2024-02-02T12:57:22.750Z,82.75
2024-02-02T12:59:56.714Z,82.73
2024-02-02T13:02:30.556Z,83.14
2024-02-02T13:05:11.408Z,83.25
2024-02-02T13:07:49.210Z,83.00
2024-02-02T13:10:37.028Z,82.71
2024-02-02T13:13:21.897Z,83.02
2024-02-02T13:15:55.912Z,83.18
2024-02-02T13:18:32.046Z,83.23
2024-02-02T13:21:24.056Z,83.31
2024-02-02T13:24:00.126Z,83.09
2024-02-02T13:26:40.647Z,84.10
2024-02-02T13:29:26.867Z,83.57
2024-02-02T13:32:04.197Z,83.95
2024-02-02T13:34:38.638Z,84.22
2024-02-02T13:37:26.064Z,84.29
2024-02-02T13:40:03.769Z,85.03
2024-02-02T13:42:38.597Z,84.65
2024-02-02T13:45:16.621Z,85.25
2024-02-02T13:47:57.131Z,85.09
2024-02-02T13:50:41.641Z,85.92
2024-02-02T13:53:16.025Z,86.93
2024-02-02T13:55:50.035Z,87.59
2024-02-02T13:58:24.343Z,87.13
2024-02-02T14:00:59.703Z,86.42
2024-02-02T14:03:34.248Z,87.56
2024-02-02T14:06:08.485Z,88.36
2024-02-02T14:08:43.008Z,87.80
2024-02-02T14:11:23.486Z,88.00
2024-02-02T14:13:58.470Z,87.72
2024-02-02T14:16:34.066Z,87.88
2024-02-02T14:19:10.310Z,88.06
2024-02-02T14:21:44.233Z,87.96
2024-02-02T14:24:18.423Z,88.06
2024-02-02T14:26:53.358Z,88.38
2024-02-02T14:29:27.817Z,88.52
2024-02-02T14:32:02.947Z,88.07
2024-02-02T14:34:37.213Z,87.72
2024-02-02T14:37:12.403Z,88.31
2024-02-02T14:39:46.262Z,88.99
2024-02-02T14:42:20.380Z,90.86
2024-02-02T14:44:55.456Z,91.66
2024-02-02T14:47:33.297Z,91.69
2024-02-02T14:50:10.278Z,91.60
2024-02-02T14:52:44.034Z,92.04
2024-02-02T14:55:17.782Z,91.75
2024-02-02T14:57:52.106Z,91.66
2024-02-02T15:00:31.789Z,91.45
2024-02-02T15:03:07.387Z,91.64
2024-02-02T15:05:42.044Z,91.98
2024-02-02T15:08:15.894Z,91.67
2024-02-02T15:10:50.524Z,92.03
2024-02-02T15:13:24.317Z,92.25
2024-02-02T15:15:58.062Z,91.89
2024-02-02T15:18:33.371Z,92.21
2024-02-02T15:21:07.198Z,92.23
2024-02-02T15:23:40.979Z,91.53
2024-02-02T15:26:15.638Z,91.07
2024-02-02T15:28:49.437Z,92.61
2024-02-02T15:31:23.866Z,92.60
2024-02-02T15:33:59.539Z,92.51
2024-02-02T15:36:34.412Z,93.00
2024-02-02T15:39:19.542Z,93.63
2024-02-02T15:42:01.029Z,93.48
2024-02-02T15:44:34.814Z,93.80
2024-02-02T15:47:08.666Z,94.95
2024-02-02T15:49:44.073Z,94.06
2024-02-02T15:52:18.024Z,94.01
2024-02-02T15:54:54.141Z,93.85
2024-02-02T15:57:28.064Z,94.01
2024-02-02T16:00:04.775Z,94.08
2024-02-02T16:02:39.097Z,94.12
2024-02-02T16:05:18.562Z,94.38
2024-02-02T16:07:52.521Z,94.46
2024-02-02T16:10:26.633Z,94.47
2024-02-02T16:13:01.935Z,94.91
2024-02-02T16:15:35.786Z,94.90
2024-02-02T16:18:09.991Z,94.71
2024-02-02T16:20:45.258Z,94.50
2024-02-02T16:23:19.098Z,94.39
2024-02-02T16:25:52.959Z,94.24
2024-02-02T16:28:26.805Z,93.42
2024-02-02T16:31:00.665Z,93.54
2024-02-02T16:33:34.632Z,93.29
2024-02-02T16:36:10.183Z,93.04
2024-02-02T16:38:45.816Z,92.54
2024-02-02T16:41:19.787Z,92.11
2024-02-02T16:43:54.157Z,92.43
2024-02-02T16:46:27.976Z,91.88
2024-02-02T16:49:01.870Z,90.92
2024-02-02T16:51:38.118Z,90.93
2024-02-02T16:54:12.165Z,90.83
2024-02-02T16:56:46.068Z,90.34
2024-02-02T16:59:19.922Z,93.46
2024-02-02T17:01:53.793Z,94.25
2024-02-02T17:04:27.793Z,93.00
2024-02-02T17:07:03.257Z,91.85
2024-02-02T17:09:39.658Z,91.01
2024-02-02T17:12:15.942Z,90.64
2024-02-02T17:14:49.939Z,90.47
2024-02-02T17:17:23.743Z,90.97
2024-02-02T17:19:57.610Z,91.03
2024-02-02T17:22:32.848Z,90.75
2024-02-02T17:25:07.593Z,91.00
2024-02-02T17:27:42.427Z,90.82
2024-02-02T17:30:18.092Z,89.99
2024-02-02T17:32:52.208Z,89.21
2024-02-02T17:35:34.177Z,88.35
2024-02-02T17:38:16.572Z,87.14
2024-02-02T17:40:50.727Z,86.69
2024-02-02T17:43:24.682Z,86.22
2024-02-02T17:45:58.707Z,86.24
2024-02-02T17:48:32.755Z,85.62
2024-02-02T17:51:07.833Z,85.16
2024-02-02T17:53:43.359Z,85.32
2024-02-02T17:56:18.390Z,84.49
2024-02-02T17:58:56.523Z,85.08
2024-02-02T18:01:30.748Z,85.28
2024-02-02T18:04:04.922Z,85.65
2024-02-02T18:06:38.888Z,85.71
2024-02-02T18:09:14.629Z,85.53
2024-02-02T18:11:48.511Z,85.30
2024-02-02T18:14:24.762Z,85.03
2024-02-02T18:16:58.692Z,84.63
2024-02-02T18:19:33.057Z,83.37
2024-02-02T18:22:06.953Z,83.41
2024-02-02T18:24:42.624Z,83.55
2024-02-02T18:27:16.479Z,84.28
2024-02-02T18:29:53.046Z,85.03
2024-02-02T18:32:26.975Z,85.22
2024-02-02T18:35:00.895Z,85.09
2024-02-02T18:37:34.813Z,84.38
2024-02-02T18:40:11.365Z,84.89
2024-02-02T18:42:45.228Z,85.12
2024-02-02T18:45:20.663Z,85.00
2024-02-02T18:47:54.637Z,86.14
2024-02-02T18:50:28.500Z,86.31
2024-02-02T18:53:02.424Z,86.11
2024-02-02T18:55:37.651Z,85.78
2024-02-02T18:58:11.689Z,87.04
2024-02-02T19:00:45.619Z,87.05
2024-02-02T19:03:19.636Z,87.05
2024-02-02T19:05:54.448Z,86.74
2024-02-02T19:08:28.393Z,86.86
2024-02-02T19:11:05.383Z,87.15
2024-02-02T19:13:39.191Z,86.85
2024-02-02T19:16:19.925Z,86.69
2024-02-02T19:18:54.120Z,85.97
2024-02-02T19:21:31.762Z,85.73
2024-02-02T19:24:07.860Z,85.73
2024-02-02T19:26:44.428Z,85.42
2024-02-02T19:29:18.284Z,84.83
2024-02-02T19:31:53.476Z,84.95
2024-02-02T19:34:27.456Z,84.96
2024-02-02T19:37:02.450Z,85.04
2024-02-02T19:39:36.412Z,84.35
2024-02-02T19:42:11.707Z,83.98
2024-02-02T19:44:45.684Z,84.01
2024-02-02T19:47:20.180Z,83.78
2024-02-02T19:49:54.112Z,82.99
2024-02-02T19:52:28.020Z,84.22
2024-02-02T19:55:04.091Z,85.36
2024-02-02T19:57:41.302Z,85.05
2024-02-02T20:00:16.938Z,84.54
2024-02-02T20:02:51.335Z,83.60
2024-02-02T20:05:28.779Z,84.69
2024-02-02T20:08:03.238Z,83.05
2024-02-02T20:10:37.080Z,83.44
2024-02-02T20:13:12.278Z,83.52
2024-02-02T20:15:46.163Z,83.19
2024-02-02T20:18:20.253Z,82.45
2024-02-02T20:20:55.146Z,82.55
2024-02-02T20:23:28.995Z,83.04
2024-02-02T20:26:05.070Z,83.98
2024-02-02T20:28:40.413Z,83.45
2024-02-02T20:33:57.888Z,83.18
2024-02-02T20:36:33.218Z,82.56
2024-02-02T20:39:09.067Z,82.76
2024-02-02T20:41:42.860Z,82.59
2024-02-02T20:44:17.929Z,82.97
2024-02-02T20:46:51.571Z,83.13
2024-02-02T20:49:25.741Z,83.06
2024-02-02T20:51:59.579Z,83.14
2024-02-02T20:54:33.460Z,81.91
2024-02-02T20:57:07.191Z,82.80
2024-02-02T20:59:43.584Z,82.51
2024-02-02T21:02:17.261Z,82.58
2024-02-02T21:04:52.042Z,82.94
2024-02-02T21:07:25.889Z,83.15
2024-02-02T21:09:59.738Z,82.86
2024-02-02T21:12:33.464Z,82.76
2024-02-02T21:15:09.362Z,82.40
2024-02-02T21:17:46.169Z,82.40
2024-02-02T21:20:23.196Z,82.56
2024-02-02T21:22:56.864Z,82.90
2024-02-02T21:25:30.566Z,82.88
2024-02-02T21:28:04.968Z,82.58
2024-02-02T21:30:40.535Z,82.25
2024-02-02T21:33:16.072Z,82.59
2024-02-02T21:35:51.324Z,82.55
2024-02-02T21:38:25.256Z,82.90
2024-02-02T21:40:58.946Z,82.91
2024-02-02T21:43:32.696Z,83.10
2024-02-02T21:46:08.106Z,83.28
2024-02-02T21:48:41.889Z,82.93
2024-02-02T21:51:15.970Z,83.02
2024-02-02T21:53:49.666Z,82.94
2024-02-02T21:56:23.922Z,83.56
2024-02-02T21:58:58.655Z,84.29
2024-02-02T22:01:37.304Z,84.14
2024-02-02T22:04:13.069Z,84.25
2024-02-02T22:06:47.328Z,84.28
2024-02-02T22:09:21.176Z,84.56
2024-02-02T22:11:54.965Z,84.63
2024-02-02T22:14:29.237Z,84.72
2024-02-02T22:17:05.072Z,85.19
2024-02-02T22:19:39.197Z,84.92
2024-02-02T22:22:12.912Z,85.25
2024-02-02T22:24:46.584Z,85.20
2024-02-02T22:27:23.664Z,85.53
2024-02-02T22:29:57.786Z,86.01
2024-02-02T22:32:32.810Z,86.12
2024-02-02T22:35:06.833Z,86.17
2024-02-02T22:37:44.970Z,86.50
2024-02-02T22:40:18.785Z,87.03
2024-02-02T22:42:52.464Z,86.50
2024-02-02T22:45:26.315Z,85.94
2024-02-02T22:48:01.477Z,86.24
2024-02-02T22:50:35.739Z,86.75
2024-02-02T22:53:09.553Z,87.19
2024-02-02T22:55:43.235Z,87.04
2024-02-02T22:58:17.176Z,87.65
2024-02-02T23:00:51.021Z,87.33
2024-02-02T23:03:28.081Z,87.41
2024-02-02T23:06:03.017Z,87.53
2024-02-02T23:08:36.813Z,87.37
2024-02-02T23:11:10.483Z,87.51
2024-02-02T23:13:44.172Z,87.76
2024-02-02T23:16:18.371Z,87.41
2024-02-02T23:18:53.621Z,87.00
2024-02-02T23:21:27.377Z,87.13
2024-02-02T23:24:01.087Z,86.98
2024-02-02T23:26:34.778Z,87.37
2024-02-02T23:29:08.607Z,87.84
2024-02-02T23:31:42.349Z,87.93
2024-02-02T23:34:17.531Z,87.10
2024-02-02T23:36:52.242Z,87.26
2024-02-02T23:39:25.962Z,87.03
2024-02-02T23:41:59.645Z,87.55
2024-02-02T23:44:33.785Z,86.71
2024-02-02T23:47:08.001Z,86.82
2024-02-02T23:49:43.148Z,86.14
2024-02-02T23:52:17.057Z,86.43
2024-02-02T23:54:50.892Z,86.12
2024-02-02T23:57:25.957Z,86.53
2024-02-02T23:59:59.773Z,85.44
